createdAt,value
2023-02-13T00:01:55.463Z,2.58
2023-02-13T00:04:24.167Z,2.59
2023-02-13T00:06:54.784Z,2.61
2023-02-13T00:09:23.402Z,2.63
2023-02-13T00:11:52.312Z,2.63
2023-02-13T00:14:21.649Z,2.63
2023-02-13T00:16:50.760Z,2.64
2023-02-13T00:19:20.428Z,2.66
2023-02-13T00:21:49.215Z,2.68
2023-02-13T00:24:17.854Z,2.70
2023-02-13T00:26:47.405Z,2.71
2023-02-13T00:29:16.550Z,2.71
2023-02-13T00:31:47.790Z,2.71
2023-02-13T00:34:18.913Z,2.72
2023-02-13T00:36:47.652Z,2.74
2023-02-13T00:39:16.630Z,2.75
2023-02-13T00:41:45.088Z,2.75
2023-02-13T00:44:13.645Z,2.75
2023-02-13T00:46:42.467Z,2.75
2023-02-13T00:49:11.101Z,2.76
2023-02-13T00:51:39.464Z,2.78
2023-02-13T00:54:07.892Z,2.79
2023-02-13T00:56:36.441Z,2.80
2023-02-13T00:59:05.063Z,2.81
2023-02-13T01:01:34.101Z,2.81
2023-02-13T01:04:02.714Z,2.82
2023-02-13T01:06:31.280Z,2.84
2023-02-13T01:09:00.037Z,2.84
2023-02-13T01:11:28.503Z,2.85
2023-02-13T01:13:57.045Z,2.86
2023-02-13T01:16:25.624Z,2.85
2023-02-13T01:18:54.454Z,2.84
2023-02-13T01:21:24.318Z,2.84
2023-02-13T01:23:52.760Z,2.84
2023-02-13T01:26:24.114Z,2.84
2023-02-13T01:28:55.120Z,2.85
2023-02-13T01:31:23.730Z,2.85
2023-02-13T01:33:52.491Z,2.86
2023-02-13T01:36:21.024Z,2.87
2023-02-13T01:38:52.962Z,2.89
2023-02-13T01:41:22.272Z,2.89
2023-02-13T01:43:53.966Z,2.88
2023-02-13T01:46:37.521Z,2.89
2023-02-13T01:49:14.069Z,2.89
2023-02-13T01:51:43.833Z,2.88
2023-02-13T01:54:33.718Z,2.90
2023-02-13T01:57:14.872Z,2.90
2023-02-13T02:00:00.800Z,2.89
2023-02-13T02:02:32.373Z,2.89
2023-02-13T02:05:03.051Z,2.89
2023-02-13T02:07:32.288Z,2.91
2023-02-13T02:10:05.823Z,2.91
2023-02-13T02:12:58.723Z,2.92
2023-02-13T02:15:27.677Z,2.92
2023-02-13T02:17:56.159Z,2.92
2023-02-13T02:20:47.113Z,2.92
2023-02-13T02:23:27.836Z,2.92
2023-02-13T02:26:08.369Z,2.92
2023-02-13T02:28:39.846Z,2.94
2023-02-13T02:31:56.185Z,2.93
2023-02-13T02:34:37.550Z,2.93
2023-02-13T02:37:37.449Z,2.94
2023-02-13T02:40:29.763Z,2.96
2023-02-13T02:43:29.383Z,2.96
2023-02-13T02:46:31.918Z,2.98
2023-02-13T02:49:32.487Z,2.97
2023-02-13T02:52:06.810Z,2.96
2023-02-13T02:55:00.587Z,2.96
2023-02-13T02:57:51.760Z,2.98
2023-02-13T03:00:43.316Z,2.97
2023-02-13T03:03:41.139Z,2.97
2023-02-13T03:06:32.681Z,2.96
2023-02-13T03:09:23.326Z,2.97
2023-02-13T03:12:13.394Z,2.99
2023-02-13T03:14:42.967Z,2.99
2023-02-13T03:17:33.685Z,3.00
2023-02-13T03:20:20.852Z,2.98
2023-02-13T03:22:55.425Z,2.98
2023-02-13T03:25:49.552Z,2.97
2023-02-13T03:28:45.851Z,2.98
2023-02-13T03:31:29.789Z,2.99
2023-02-13T03:34:04.188Z,2.99
2023-02-13T03:37:05.990Z,2.98
2023-02-13T03:40:00.887Z,2.97
2023-02-13T03:42:55.420Z,2.99
2023-02-13T03:45:54.590Z,2.99
2023-02-13T03:48:51.748Z,2.99
2023-02-13T03:51:43.629Z,2.98
2023-02-13T03:54:52.762Z,2.99
2023-02-13T03:57:42.716Z,2.98
2023-02-13T04:00:14.880Z,2.99
2023-02-13T04:03:06.174Z,3.00
2023-02-13T04:05:41.973Z,3.00
2023-02-13T04:08:11.191Z,3.01
2023-02-13T04:10:50.722Z,3.01
2023-02-13T04:13:35.543Z,3.04
2023-02-13T04:16:11.924Z,3.04
2023-02-13T04:18:40.419Z,3.05
2023-02-13T04:21:08.947Z,3.03
2023-02-13T04:23:37.447Z,3.04
2023-02-13T04:26:17.638Z,3.06
2023-02-13T04:28:46.219Z,3.06
2023-02-13T04:31:15.808Z,3.07
2023-02-13T04:33:44.626Z,3.08
2023-02-13T04:36:12.990Z,3.08
2023-02-13T04:38:41.418Z,3.08
2023-02-13T04:41:17.897Z,3.08
2023-02-13T04:43:46.532Z,3.11
2023-02-13T04:46:15.269Z,3.12
2023-02-13T04:48:44.065Z,3.13
2023-02-13T04:51:12.558Z,3.14
2023-02-13T04:53:41.147Z,3.15
2023-02-13T04:56:09.851Z,3.16
2023-02-13T04:58:38.270Z,3.18
2023-02-13T05:01:17.576Z,3.20
2023-02-13T05:03:46.446Z,3.22
2023-02-13T05:06:15.232Z,3.23
2023-02-13T05:08:43.737Z,3.24
2023-02-13T05:11:12.252Z,3.25
2023-02-13T05:13:40.883Z,3.27
2023-02-13T05:16:09.421Z,3.28
2023-02-13T05:18:38.113Z,3.28
2023-02-13T05:21:25.042Z,3.27
2023-02-13T05:23:53.610Z,3.26
2023-02-13T05:26:22.039Z,3.27
2023-02-13T05:29:09.052Z,3.30
2023-02-13T05:31:37.515Z,3.30
2023-02-13T05:34:06.097Z,3.29
2023-02-13T05:36:34.741Z,3.28
2023-02-13T05:39:03.642Z,3.27
2023-02-13T05:41:32.186Z,3.28
2023-02-13T05:44:00.918Z,3.29
2023-02-13T05:46:29.553Z,3.30
2023-02-13T05:48:58.082Z,3.31
2023-02-13T05:51:26.698Z,3.31
2023-02-13T05:53:55.205Z,3.31
2023-02-13T05:56:23.780Z,3.32
2023-02-13T05:58:54.149Z,3.33
2023-02-13T06:01:24.087Z,3.33
2023-02-13T06:03:52.892Z,3.32
2023-02-13T06:06:23.068Z,3.32
2023-02-13T06:08:51.961Z,3.32
2023-02-13T06:11:21.210Z,3.33
2023-02-13T06:13:49.616Z,3.33
2023-02-13T06:16:18.220Z,3.33
2023-02-13T06:18:46.648Z,3.33
2023-02-13T06:21:15.576Z,3.32
2023-02-13T06:23:44.060Z,3.33
2023-02-13T06:26:12.922Z,3.33
2023-02-13T06:28:41.451Z,3.33
2023-02-13T06:31:10.373Z,3.33
2023-02-13T06:33:38.797Z,3.33
2023-02-13T06:36:08.246Z,3.34
2023-02-13T06:38:36.864Z,3.35
2023-02-13T06:41:06.376Z,3.36
2023-02-13T06:43:34.880Z,3.35
2023-02-13T06:46:07.430Z,3.34
2023-02-13T06:48:36.011Z,3.33
2023-02-13T06:51:04.674Z,3.33
2023-02-13T06:53:33.826Z,3.33
2023-02-13T06:56:06.496Z,3.33
2023-02-13T06:58:35.151Z,3.33
2023-02-13T07:01:06.307Z,3.33
2023-02-13T07:03:34.884Z,3.32
2023-02-13T07:06:03.443Z,3.33
2023-02-13T07:08:32.039Z,3.34
2023-02-13T07:11:00.761Z,3.36
2023-02-13T07:13:29.378Z,3.38
2023-02-13T07:16:02.116Z,3.40
2023-02-13T07:18:32.600Z,3.40
2023-02-13T07:21:02.490Z,3.42
2023-02-13T07:23:31.681Z,3.43
2023-02-13T07:26:02.278Z,3.44
2023-02-13T07:28:32.760Z,3.45
2023-02-13T07:31:06.440Z,3.47
2023-02-13T07:33:36.861Z,3.51
2023-02-13T07:36:06.586Z,3.56
2023-02-13T07:38:36.115Z,3.63
2023-02-13T07:41:05.320Z,3.72
2023-02-13T07:43:38.705Z,3.78
2023-02-13T07:46:07.571Z,3.85
2023-02-13T07:52:58.044Z,3.98
2023-02-13T07:55:31.623Z,4.07
2023-02-13T07:58:04.205Z,4.10
2023-02-13T08:00:33.075Z,4.12
2023-02-13T08:03:05.449Z,4.17
2023-02-13T08:05:35.225Z,4.19
2023-02-13T08:08:04.461Z,4.21
2023-02-13T08:10:51.635Z,4.22
2023-02-13T08:13:20.265Z,4.22
2023-02-13T08:15:49.186Z,4.21
2023-02-13T08:18:19.709Z,4.21
2023-02-13T08:20:48.857Z,4.19
2023-02-13T08:23:17.493Z,4.15
2023-02-13T08:25:47.980Z,4.13
2023-02-13T08:28:17.628Z,4.12
2023-02-13T08:30:46.299Z,4.11
2023-02-13T08:33:14.705Z,4.14
2023-02-13T08:35:43.461Z,4.16
2023-02-13T08:38:12.524Z,4.19
2023-02-13T08:40:41.093Z,4.23
2023-02-13T08:43:09.561Z,4.29
2023-02-13T08:45:38.714Z,4.36
2023-02-13T08:48:07.948Z,4.44
2023-02-13T08:50:37.532Z,4.50
2023-02-13T08:53:06.789Z,4.55
2023-02-13T08:55:35.293Z,4.59
2023-02-13T08:58:05.281Z,4.66
2023-02-13T09:00:34.258Z,4.70
2023-02-13T09:03:04.739Z,4.71
2023-02-13T09:05:35.603Z,4.77
2023-02-13T09:08:06.146Z,4.87
2023-02-13T09:10:37.542Z,4.95
2023-02-13T09:13:08.080Z,5.03
2023-02-13T09:15:41.736Z,5.09
2023-02-13T09:18:11.771Z,5.14
2023-02-13T09:20:43.065Z,5.11
2023-02-13T09:23:12.569Z,5.03
2023-02-13T09:25:42.303Z,4.96
2023-02-13T09:28:13.969Z,4.90
2023-02-13T09:30:44.208Z,4.81
2023-02-13T09:33:13.324Z,4.74
2023-02-13T09:35:42.652Z,4.67
2023-02-13T09:38:11.581Z,4.63
2023-02-13T09:40:53.875Z,4.60
2023-02-13T09:43:29.580Z,4.55
2023-02-13T09:46:05.549Z,4.50
2023-02-13T09:48:39.928Z,4.49
2023-02-13T09:51:16.528Z,4.49
2023-02-13T09:53:56.094Z,4.50
2023-02-13T09:56:38.753Z,4.52
2023-02-13T09:59:15.812Z,4.52
2023-02-13T10:01:51.585Z,4.51
2023-02-13T10:04:30.894Z,4.56
2023-02-13T10:07:20.959Z,4.63
2023-02-13T10:09:54.646Z,4.68
2023-02-13T10:12:28.939Z,4.69
2023-02-13T10:15:17.956Z,4.69
2023-02-13T10:18:00.106Z,4.67
2023-02-13T10:20:43.893Z,4.62
2023-02-13T10:23:31.143Z,4.60
2023-02-13T10:26:06.758Z,4.61
2023-02-13T10:28:41.169Z,4.60
2023-02-13T10:31:18.495Z,4.63
2023-02-13T10:33:55.459Z,4.67
2023-02-13T10:36:41.975Z,4.70
2023-02-13T10:39:32.250Z,4.72
2023-02-13T10:42:16.726Z,4.72
2023-02-13T10:45:15.531Z,4.72
2023-02-13T10:48:01.593Z,4.69
2023-02-13T10:50:57.556Z,4.64
2023-02-13T10:53:56.087Z,4.63
2023-02-13T10:56:31.985Z,4.66
2023-02-13T10:59:29.753Z,4.67
2023-02-13T11:02:27.408Z,4.66
2023-02-13T11:05:03.356Z,4.63
2023-02-13T11:07:32.774Z,4.60
2023-02-13T11:10:17.990Z,4.60
2023-02-13T11:12:47.626Z,4.63
2023-02-13T11:15:24.626Z,4.64
2023-02-13T11:17:59.826Z,4.63
2023-02-13T11:20:46.980Z,4.64
2023-02-13T11:23:24.921Z,4.64
2023-02-13T11:26:05.450Z,4.64
2023-02-13T11:29:02.348Z,4.65
2023-02-13T11:31:45.482Z,4.70
2023-02-13T11:34:30.205Z,4.75
2023-02-13T11:37:20.568Z,4.78
2023-02-13T11:39:52.660Z,4.81
2023-02-13T11:42:28.901Z,4.87
2023-02-13T11:45:08.134Z,4.92
2023-02-13T11:47:45.720Z,4.98
2023-02-13T11:50:33.294Z,5.03
2023-02-13T11:53:07.885Z,5.03
2023-02-13T11:55:42.934Z,4.99
2023-02-13T11:58:11.544Z,4.93
2023-02-13T12:00:41.827Z,4.90
2023-02-13T12:03:29.585Z,4.86
2023-02-13T12:06:18.680Z,4.81
2023-02-13T12:08:50.758Z,4.79
2023-02-13T12:11:29.964Z,4.77
2023-02-13T12:13:59.018Z,4.74
2023-02-13T12:17:03.818Z,4.68
2023-02-13T12:19:47.261Z,4.68
2023-02-13T12:22:50.004Z,4.70
2023-02-13T12:25:24.827Z,4.74
2023-02-13T12:28:40.293Z,4.77
2023-02-13T12:31:40.603Z,4.81
2023-02-13T12:34:34.038Z,4.81
2023-02-13T12:37:33.747Z,4.88
2023-02-13T12:40:21.090Z,5.03
2023-02-13T12:43:14.882Z,5.11
2023-02-13T12:45:54.607Z,5.13
2023-02-13T12:48:45.067Z,5.11
2023-02-13T12:51:26.197Z,5.06
2023-02-13T12:54:27.437Z,5.01
2023-02-13T12:57:14.572Z,4.97
2023-02-13T13:00:01.846Z,4.95
2023-02-13T13:02:49.224Z,4.94
2023-02-13T13:06:10.964Z,4.98
2023-02-13T13:08:59.105Z,5.00
2023-02-13T13:11:43.219Z,5.00
2023-02-13T13:14:39.198Z,4.99
2023-02-13T13:17:26.828Z,5.00
2023-02-13T13:20:35.848Z,5.02
2023-02-13T13:23:15.324Z,4.99
2023-02-13T13:25:59.648Z,4.95
2023-02-13T13:28:39.924Z,4.93
2023-02-13T13:31:11.157Z,4.89
2023-02-13T13:33:44.489Z,4.88
2023-02-13T13:36:31.314Z,4.89
2023-02-13T13:39:06.148Z,4.89
2023-02-13T13:42:14.531Z,4.88
2023-02-13T13:45:08.302Z,4.83
2023-02-13T13:47:45.159Z,4.78
2023-02-13T13:50:26.569Z,4.78
2023-02-13T13:53:22.390Z,4.76
2023-02-13T13:56:01.667Z,4.72
2023-02-13T13:58:51.337Z,4.69
2023-02-13T14:01:23.861Z,4.67
2023-02-13T14:04:01.708Z,4.68
2023-02-13T14:06:48.879Z,4.69
2023-02-13T14:09:27.859Z,4.72
2023-02-13T14:11:59.081Z,4.73
2023-02-13T14:14:27.928Z,4.74
2023-02-13T14:17:08.500Z,4.77
2023-02-13T14:19:40.719Z,4.78
2023-02-13T14:22:28.397Z,4.78
2023-02-13T14:25:08.159Z,4.75
2023-02-13T14:27:43.650Z,4.73
2023-02-13T14:30:34.416Z,4.73
2023-02-13T14:33:09.058Z,4.70
2023-02-13T14:35:39.084Z,4.68
2023-02-13T14:38:24.033Z,4.68
2023-02-13T14:40:54.236Z,4.66
2023-02-13T14:43:38.077Z,4.66
2023-02-13T14:46:12.616Z,4.67
2023-02-13T14:48:53.927Z,4.68
2023-02-13T14:51:31.197Z,4.68
2023-02-13T14:54:10.375Z,4.67
2023-02-13T14:56:39.603Z,4.67
2023-02-13T14:59:16.173Z,4.67
2023-02-13T15:01:52.729Z,4.69
2023-02-13T15:04:34.436Z,4.69
2023-02-13T15:07:05.825Z,4.70
2023-02-13T15:09:41.133Z,4.68
2023-02-13T15:12:34.336Z,4.68
2023-02-13T15:15:22.742Z,4.68
2023-02-13T15:17:54.812Z,4.69
2023-02-13T15:20:34.770Z,4.68
2023-02-13T15:23:07.092Z,4.66
2023-02-13T15:25:38.499Z,4.66
2023-02-13T15:28:17.839Z,4.66
2023-02-13T15:31:01.832Z,4.65
2023-02-13T15:33:46.766Z,4.63
2023-02-13T15:36:19.628Z,4.60
2023-02-13T15:38:48.755Z,4.58
2023-02-13T15:41:22.062Z,4.57
2023-02-13T15:43:56.960Z,4.54
2023-02-13T15:46:27.283Z,4.53
2023-02-13T15:48:59.212Z,4.51
2023-02-13T15:51:31.769Z,4.48
2023-02-13T15:54:06.169Z,4.48
2023-02-13T15:56:35.981Z,4.48
2023-02-13T15:59:04.577Z,4.47
2023-02-13T16:01:35.704Z,4.45
2023-02-13T16:04:07.781Z,4.44
2023-02-13T16:06:36.856Z,4.44
2023-02-13T16:09:06.454Z,4.43
2023-02-13T16:11:41.561Z,4.44
2023-02-13T16:14:18.760Z,4.43
2023-02-13T16:16:55.774Z,4.43
2023-02-13T16:19:30.434Z,4.43
2023-02-13T16:22:03.902Z,4.42
2023-02-13T16:24:32.666Z,4.40
2023-02-13T16:27:01.639Z,4.39
2023-02-13T16:29:30.603Z,4.38
2023-02-13T16:32:07.955Z,4.38
2023-02-13T16:34:38.844Z,4.39
2023-02-13T16:37:33.739Z,4.38
2023-02-13T16:40:42.456Z,4.37
2023-02-13T16:43:42.151Z,4.36
2023-02-13T16:46:37.233Z,4.37
2023-02-13T16:49:12.410Z,4.37
2023-02-13T16:51:42.891Z,4.37
2023-02-13T16:54:11.384Z,4.37
2023-02-13T16:56:55.120Z,4.34
2023-02-13T16:59:28.970Z,4.33
2023-02-13T17:02:41.136Z,4.33
2023-02-13T17:05:09.891Z,4.34
2023-02-13T17:07:54.856Z,4.34
2023-02-13T17:10:31.322Z,4.33
2023-02-13T17:13:13.557Z,4.32
2023-02-13T17:15:46.835Z,4.32
2023-02-13T17:18:15.712Z,4.32
2023-02-13T17:20:45.728Z,4.32
2023-02-13T17:23:21.464Z,4.32
2023-02-13T17:25:52.349Z,4.30
2023-02-13T17:28:27.348Z,4.29
2023-02-13T17:30:59.120Z,4.29
2023-02-13T17:33:31.044Z,4.29
2023-02-13T17:35:59.673Z,4.29
2023-02-13T17:38:28.532Z,4.28
2023-02-13T17:42:13.010Z,4.26
2023-02-13T17:44:41.687Z,4.26
2023-02-13T17:47:10.296Z,4.27
2023-02-13T17:49:48.188Z,4.27
2023-02-13T17:52:29.199Z,4.26
2023-02-13T17:54:57.888Z,4.25
2023-02-13T17:57:26.418Z,4.24
2023-02-13T17:59:55.838Z,4.22
2023-02-13T18:02:28.196Z,4.21
2023-02-13T18:04:56.983Z,4.22
2023-02-13T18:07:25.660Z,4.22
2023-02-13T18:09:54.358Z,4.22
2023-02-13T18:12:25.363Z,4.20
2023-02-13T18:14:54.326Z,4.19
2023-02-13T18:17:22.792Z,4.19
2023-02-13T18:19:51.275Z,4.19
2023-02-13T18:22:19.978Z,4.19
2023-02-13T18:24:48.902Z,4.19
2023-02-13T18:27:18.347Z,4.18
2023-02-13T18:29:46.948Z,4.18
2023-02-13T18:32:15.624Z,4.14
2023-02-13T18:34:44.352Z,4.11
2023-02-13T18:37:14.126Z,4.11
2023-02-13T18:39:42.698Z,4.12
2023-02-13T18:42:13.557Z,4.12
2023-02-13T18:44:42.267Z,4.12
2023-02-13T18:47:10.858Z,4.12
2023-02-13T18:49:39.391Z,4.10
2023-02-13T18:52:08.014Z,4.10
2023-02-13T18:54:39.678Z,4.08
2023-02-13T18:57:08.252Z,4.09
2023-02-13T18:59:36.790Z,4.08
2023-02-13T19:02:05.874Z,4.07
2023-02-13T19:04:36.225Z,4.05
2023-02-13T19:07:11.976Z,4.03
2023-02-13T19:09:42.342Z,4.03
2023-02-13T19:12:11.295Z,4.03
2023-02-13T19:14:40.674Z,4.03
2023-02-13T19:17:10.623Z,4.02
2023-02-13T19:19:39.771Z,4.00
2023-02-13T19:22:12.488Z,3.99
2023-02-13T19:24:41.959Z,3.99
2023-02-13T19:27:11.842Z,3.99
2023-02-13T19:29:42.203Z,3.99
2023-02-13T19:32:11.283Z,3.98
2023-02-13T19:34:41.337Z,3.97
2023-02-13T19:37:10.638Z,3.96
2023-02-13T19:39:42.489Z,3.94
2023-02-13T19:46:52.012Z,3.93
2023-02-13T19:49:23.828Z,3.92
2023-02-13T19:51:53.636Z,3.91
2023-02-13T19:54:26.315Z,3.90
2023-02-13T19:57:00.568Z,3.89
2023-02-13T19:59:29.717Z,3.91
2023-02-13T20:02:16.617Z,3.91
2023-02-13T20:05:02.355Z,3.91
2023-02-13T20:07:36.419Z,3.89
2023-02-13T20:10:30.839Z,3.88
2023-02-13T20:13:00.240Z,3.84
2023-02-13T20:15:50.170Z,3.83
2023-02-13T20:18:25.060Z,3.83
2023-02-13T20:20:56.776Z,3.83
2023-02-13T20:23:26.682Z,3.82
2023-02-13T20:26:08.094Z,3.82
2023-02-13T20:32:16.818Z,3.78
2023-02-13T20:35:08.383Z,3.77
2023-02-13T20:37:59.147Z,3.78
2023-02-13T20:40:50.064Z,3.78
2023-02-13T20:44:09.716Z,3.79
2023-02-13T20:46:39.984Z,3.77
2023-02-13T20:49:13.787Z,3.76
2023-02-13T20:52:04.897Z,3.74
2023-02-13T20:54:39.217Z,3.75
2023-02-13T20:57:08.539Z,3.75
2023-02-13T20:59:44.440Z,3.75
2023-02-13T21:02:24.980Z,3.74
2023-02-13T21:04:55.831Z,3.72
2023-02-13T21:07:31.738Z,3.70
2023-02-13T21:10:09.187Z,3.69
2023-02-13T21:12:47.970Z,3.70
2023-02-13T21:15:20.726Z,3.70
2023-02-13T21:17:59.491Z,3.71
2023-02-13T21:20:31.745Z,3.70
2023-02-13T21:23:03.780Z,3.68
2023-02-13T21:25:34.473Z,3.67
2023-02-13T21:28:03.366Z,3.66
2023-02-13T21:30:32.559Z,3.65
2023-02-13T21:33:02.815Z,3.65
2023-02-13T21:35:31.946Z,3.64
2023-02-13T21:38:01.355Z,3.63
2023-02-13T21:40:36.443Z,3.63
2023-02-13T21:43:06.180Z,3.62
2023-02-13T21:45:39.034Z,3.61
2023-02-13T21:48:09.246Z,3.61
2023-02-13T21:50:41.853Z,3.61
2023-02-13T21:53:11.614Z,3.60
2023-02-13T21:55:43.738Z,3.60
2023-02-13T21:58:13.560Z,3.60
2023-02-13T22:00:43.521Z,3.59
2023-02-13T22:03:14.367Z,3.57
2023-02-13T22:05:48.615Z,3.56
2023-02-13T22:08:23.797Z,3.55
2023-02-13T22:11:00.173Z,3.56
2023-02-13T22:13:34.494Z,3.56
2023-02-13T22:16:20.137Z,3.55
2023-02-13T22:18:50.926Z,3.55
2023-02-13T22:21:25.601Z,3.53
2023-02-13T22:23:58.527Z,3.54
2023-02-13T22:26:33.252Z,3.55
2023-02-13T22:29:07.268Z,3.56
2023-02-13T22:31:42.391Z,3.57
2023-02-13T22:34:14.460Z,3.57
2023-02-13T22:36:44.746Z,3.56
2023-02-13T22:39:14.347Z,3.55
2023-02-13T22:41:45.976Z,3.55
2023-02-13T22:44:15.432Z,3.56
2023-02-13T22:46:45.782Z,3.56
2023-02-13T22:49:14.354Z,3.55
2023-02-13T22:51:43.143Z,3.53
2023-02-13T22:54:12.289Z,3.52
2023-02-13T22:56:40.758Z,3.53
2023-02-13T22:59:09.752Z,3.54
2023-02-13T23:01:38.318Z,3.53
2023-02-13T23:04:10.359Z,3.52
2023-02-13T23:06:44.191Z,3.50
2023-02-13T23:09:13.077Z,3.49
2023-02-13T23:12:00.272Z,3.48
2023-02-13T23:14:35.579Z,3.48
2023-02-13T23:17:36.684Z,3.49
2023-02-13T23:20:05.887Z,3.47
2023-02-13T23:22:35.946Z,3.45
2023-02-13T23:25:06.314Z,3.44
2023-02-13T23:27:35.910Z,3.44
2023-02-13T23:30:06.967Z,3.44
2023-02-13T23:32:35.647Z,3.44
2023-02-13T23:35:04.807Z,3.44
2023-02-13T23:37:33.810Z,3.44
2023-02-13T23:40:03.166Z,3.43
2023-02-13T23:42:31.962Z,3.41
2023-02-13T23:45:00.547Z,3.41
2023-02-13T23:47:30.073Z,3.41
2023-02-13T23:49:58.769Z,3.41
2023-02-13T23:52:27.462Z,3.40
2023-02-13T23:54:55.987Z,3.37
2023-02-13T23:57:24.597Z,3.36
2023-02-13T23:59:53.051Z,3.37
